sensor_id;sensor_type;location;lat;lon;timestamp;temperature;humidity
46590;DHT22;32313;48.722;9.362;2022-12-22T00:00:16;4.00;99.90
46590;DHT22;32313;48.722;9.362;2022-12-22T00:03:00;4.10;99.90
46590;DHT22;32313;48.722;9.362;2022-12-22T00:05:44;4.00;99.90
46590;DHT22;32313;48.722;9.362;2022-12-22T00:08:28;4.00;99.90
46590;DHT22;32313;48.722;9.362;2022-12-22T00:11:13;4.00;99.90
46590;DHT22;32313;48.722;9.362;2022-12-22T00:13:57;4.00;99.90
46590;DHT22;32313;48.722;9.362;2022-12-22T00:16:45;4.00;99.90
46590;DHT22;32313;48.722;9.362;2022-12-22T00:19:29;3.90;99.90
46590;DHT22;32313;48.722;9.362;2022-12-22T00:22:15;3.90;99.90
46590;DHT22;32313;48.722;9.362;2022-12-22T00:25:01;3.90;99.90
46590;DHT22;32313;48.722;9.362;2022-12-22T00:27:46;3.90;99.90
46590;DHT22;32313;48.722;9.362;2022-12-22T00:30:30;4.00;99.90
46590;DHT22;32313;48.722;9.362;2022-12-22T00:33:16;4.00;99.90
46590;DHT22;32313;48.722;9.362;2022-12-22T00:36:02;3.90;99.90
46590;DHT22;32313;48.722;9.362;2022-12-22T00:38:47;3.90;99.90
46590;DHT22;32313;48.722;9.362;2022-12-22T00:41:31;3.90;99.90
46590;DHT22;32313;48.722;9.362;2022-12-22T00:44:16;3.90;99.90
46590;DHT22;32313;48.722;9.362;2022-12-22T00:47:00;3.90;99.90
46590;DHT22;32313;48.722;9.362;2022-12-22T00:49:46;3.90;99.90
46590;DHT22;32313;48.722;9.362;2022-12-22T00:52:32;3.90;99.90
46590;DHT22;32313;48.722;9.362;2022-12-22T00:55:19;3.90;99.90
46590;DHT22;32313;48.722;9.362;2022-12-22T00:58:14;3.90;99.90
46590;DHT22;32313;48.722;9.362;2022-12-22T01:00:59;3.90;99.90
46590;DHT22;32313;48.722;9.362;2022-12-22T01:03:44;3.90;99.90
46590;DHT22;32313;48.722;9.362;2022-12-22T01:06:31;3.90;99.90
46590;DHT22;32313;48.722;9.362;2022-12-22T01:09:17;4.00;99.90
46590;DHT22;32313;48.722;9.362;2022-12-22T01:12:10;4.00;99.90
46590;DHT22;32313;48.722;9.362;2022-12-22T01:14:56;4.00;99.90
46590;DHT22;32313;48.722;9.362;2022-12-22T01:17:40;4.00;99.90
46590;DHT22;32313;48.722;9.362;2022-12-22T01:20:24;4.00;99.90
46590;DHT22;32313;48.722;9.362;2022-12-22T01:23:09;4.00;99.90
46590;DHT22;32313;48.722;9.362;2022-12-22T01:25:54;3.90;99.90
46590;DHT22;32313;48.722;9.362;2022-12-22T01:28:38;3.90;99.90
46590;DHT22;32313;48.722;9.362;2022-12-22T01:31:29;3.90;99.90
46590;DHT22;32313;48.722;9.362;2022-12-22T01:34:14;3.90;99.90
46590;DHT22;32313;48.722;9.362;2022-12-22T01:36:58;4.00;99.90
46590;DHT22;32313;48.722;9.362;2022-12-22T01:39:42;4.00;99.90
46590;DHT22;32313;48.722;9.362;2022-12-22T01:42:27;4.00;99.90
46590;DHT22;32313;48.722;9.362;2022-12-22T01:45:26;4.00;99.90
46590;DHT22;32313;48.722;9.362;2022-12-22T01:48:18;4.00;99.90
46590;DHT22;32313;48.722;9.362;2022-12-22T01:51:08;4.00;99.90
46590;DHT22;32313;48.722;9.362;2022-12-22T01:53:53;4.00;99.90
46590;DHT22;32313;48.722;9.362;2022-12-22T01:56:39;4.00;99.90
46590;DHT22;32313;48.722;9.362;2022-12-22T01:59:24;4.00;99.90
46590;DHT22;32313;48.722;9.362;2022-12-22T02:02:09;3.90;99.90
46590;DHT22;32313;48.722;9.362;2022-12-22T02:04:56;4.00;99.90
46590;DHT22;32313;48.722;9.362;2022-12-22T02:14:25;4.00;99.90
46590;DHT22;32313;48.722;9.362;2022-12-22T02:17:40;4.00;99.90
46590;DHT22;32313;48.722;9.362;2022-12-22T02:20:33;4.10;99.90
46590;DHT22;32313;48.722;9.362;2022-12-22T02:23:28;4.10;99.90
46590;DHT22;32313;48.722;9.362;2022-12-22T02:29:07;4.20;99.90
46590;DHT22;32313;48.722;9.362;2022-12-22T02:31:51;4.20;99.90
46590;DHT22;32313;48.722;9.362;2022-12-22T02:34:36;4.30;99.90
46590;DHT22;32313;48.722;9.362;2022-12-22T02:38:46;4.40;99.90
46590;DHT22;32313;48.722;9.362;2022-12-22T02:41:15;4.60;99.90
46590;DHT22;32313;48.722;9.362;2022-12-22T02:46:59;4.70;99.90
46590;DHT22;32313;48.722;9.362;2022-12-22T02:49:52;5.10;99.90
46590;DHT22;32313;48.722;9.362;2022-12-22T02:52:38;5.60;99.90
46590;DHT22;32313;48.722;9.362;2022-12-22T02:55:24;6.20;99.90
46590;DHT22;32313;48.722;9.362;2022-12-22T02:58:11;6.70;99.90
46590;DHT22;32313;48.722;9.362;2022-12-22T03:01:00;7.10;99.90
46590;DHT22;32313;48.722;9.362;2022-12-22T03:03:46;7.50;99.90
46590;DHT22;32313;48.722;9.362;2022-12-22T03:06:31;7.60;99.90
46590;DHT22;32313;48.722;9.362;2022-12-22T03:09:15;7.60;99.90
46590;DHT22;32313;48.722;9.362;2022-12-22T03:11:59;7.50;99.90
46590;DHT22;32313;48.722;9.362;2022-12-22T03:14:43;7.60;99.90
46590;DHT22;32313;48.722;9.362;2022-12-22T03:17:28;7.70;99.90
46590;DHT22;32313;48.722;9.362;2022-12-22T03:20:12;7.80;99.90
46590;DHT22;32313;48.722;9.362;2022-12-22T03:23:04;7.90;99.90
46590;DHT22;32313;48.722;9.362;2022-12-22T03:25:49;7.90;99.90
46590;DHT22;32313;48.722;9.362;2022-12-22T03:28:24;7.90;99.90
46590;DHT22;32313;48.722;9.362;2022-12-22T03:31:02;7.90;99.90
46590;DHT22;32313;48.722;9.362;2022-12-22T03:33:29;7.90;99.90
46590;DHT22;32313;48.722;9.362;2022-12-22T03:35:55;7.80;99.90
46590;DHT22;32313;48.722;9.362;2022-12-22T03:38:21;7.90;99.90
46590;DHT22;32313;48.722;9.362;2022-12-22T03:40:46;8.00;99.90
46590;DHT22;32313;48.722;9.362;2022-12-22T03:43:14;8.20;99.90
46590;DHT22;32313;48.722;9.362;2022-12-22T03:45:59;8.10;99.90
46590;DHT22;32313;48.722;9.362;2022-12-22T03:49:03;8.10;99.90
46590;DHT22;32313;48.722;9.362;2022-12-22T03:51:42;8.20;99.90
46590;DHT22;32313;48.722;9.362;2022-12-22T03:54:13;8.00;99.90
46590;DHT22;32313;48.722;9.362;2022-12-22T03:56:40;8.00;99.90
46590;DHT22;32313;48.722;9.362;2022-12-22T03:59:06;8.00;99.90
46590;DHT22;32313;48.722;9.362;2022-12-22T04:01:35;7.90;99.90
46590;DHT22;32313;48.722;9.362;2022-12-22T04:04:01;8.00;99.90
46590;DHT22;32313;48.722;9.362;2022-12-22T04:06:27;8.20;99.90
46590;DHT22;32313;48.722;9.362;2022-12-22T04:08:53;8.40;99.90
46590;DHT22;32313;48.722;9.362;2022-12-22T04:11:19;8.40;99.90
46590;DHT22;32313;48.722;9.362;2022-12-22T04:14:03;8.60;99.90
46590;DHT22;32313;48.722;9.362;2022-12-22T04:16:29;8.70;99.90
46590;DHT22;32313;48.722;9.362;2022-12-22T04:18:55;8.80;99.90
46590;DHT22;32313;48.722;9.362;2022-12-22T04:21:22;8.80;99.90
46590;DHT22;32313;48.722;9.362;2022-12-22T04:23:47;8.80;99.90
46590;DHT22;32313;48.722;9.362;2022-12-22T04:26:21;8.80;99.90
46590;DHT22;32313;48.722;9.362;2022-12-22T04:28:48;8.70;99.90
46590;DHT22;32313;48.722;9.362;2022-12-22T04:31:13;8.70;99.90
46590;DHT22;32313;48.722;9.362;2022-12-22T04:33:39;8.70;99.90
46590;DHT22;32313;48.722;9.362;2022-12-22T04:36:05;8.70;99.90
46590;DHT22;32313;48.722;9.362;2022-12-22T04:38:31;8.60;99.90
46590;DHT22;32313;48.722;9.362;2022-12-22T04:40:57;8.60;99.90
46590;DHT22;32313;48.722;9.362;2022-12-22T04:43:22;8.50;99.90
46590;DHT22;32313;48.722;9.362;2022-12-22T04:45:54;8.60;99.90
46590;DHT22;32313;48.722;9.362;2022-12-22T04:48:21;8.60;99.90
46590;DHT22;32313;48.722;9.362;2022-12-22T04:50:51;8.50;99.90
46590;DHT22;32313;48.722;9.362;2022-12-22T04:53:18;8.60;99.90
46590;DHT22;32313;48.722;9.362;2022-12-22T04:55:49;8.70;99.90
46590;DHT22;32313;48.722;9.362;2022-12-22T04:58:15;8.80;99.90
46590;DHT22;32313;48.722;9.362;2022-12-22T05:00:41;8.90;99.90
46590;DHT22;32313;48.722;9.362;2022-12-22T05:03:07;9.10;99.90
46590;DHT22;32313;48.722;9.362;2022-12-22T05:05:33;9.10;99.90
46590;DHT22;32313;48.722;9.362;2022-12-22T05:07:59;9.20;99.90
46590;DHT22;32313;48.722;9.362;2022-12-22T05:10:24;9.20;99.90
46590;DHT22;32313;48.722;9.362;2022-12-22T05:12:50;9.50;99.90
46590;DHT22;32313;48.722;9.362;2022-12-22T05:15:25;9.60;99.90
46590;DHT22;32313;48.722;9.362;2022-12-22T05:17:51;9.70;99.90
46590;DHT22;32313;48.722;9.362;2022-12-22T05:20:17;9.70;99.90
46590;DHT22;32313;48.722;9.362;2022-12-22T05:22:43;9.70;99.90
46590;DHT22;32313;48.722;9.362;2022-12-22T05:25:09;9.70;99.90
46590;DHT22;32313;48.722;9.362;2022-12-22T05:27:35;9.90;99.90
46590;DHT22;32313;48.722;9.362;2022-12-22T05:30:01;9.90;99.90
46590;DHT22;32313;48.722;9.362;2022-12-22T05:32:27;10.00;99.90
46590;DHT22;32313;48.722;9.362;2022-12-22T05:34:53;10.00;99.90
46590;DHT22;32313;48.722;9.362;2022-12-22T05:37:19;10.10;99.90
46590;DHT22;32313;48.722;9.362;2022-12-22T05:39:44;10.10;99.90
46590;DHT22;32313;48.722;9.362;2022-12-22T05:42:10;10.10;99.90
46590;DHT22;32313;48.722;9.362;2022-12-22T05:44:36;10.00;99.90
46590;DHT22;32313;48.722;9.362;2022-12-22T05:47:01;10.00;99.90
46590;DHT22;32313;48.722;9.362;2022-12-22T05:49:27;9.90;99.90
46590;DHT22;32313;48.722;9.362;2022-12-22T05:51:53;9.80;99.90
46590;DHT22;32313;48.722;9.362;2022-12-22T05:54:20;9.60;99.90
46590;DHT22;32313;48.722;9.362;2022-12-22T05:56:45;9.60;99.90
46590;DHT22;32313;48.722;9.362;2022-12-22T05:59:11;9.70;99.90
46590;DHT22;32313;48.722;9.362;2022-12-22T06:01:37;9.80;99.90
46590;DHT22;32313;48.722;9.362;2022-12-22T06:04:03;9.80;99.90
46590;DHT22;32313;48.722;9.362;2022-12-22T06:06:29;9.70;99.90
46590;DHT22;32313;48.722;9.362;2022-12-22T06:08:54;9.70;99.90
46590;DHT22;32313;48.722;9.362;2022-12-22T06:11:20;9.60;99.90
46590;DHT22;32313;48.722;9.362;2022-12-22T06:13:46;9.50;99.90
46590;DHT22;32313;48.722;9.362;2022-12-22T06:16:12;9.30;99.90
46590;DHT22;32313;48.722;9.362;2022-12-22T06:18:37;9.30;99.90
46590;DHT22;32313;48.722;9.362;2022-12-22T06:21:03;9.30;99.90
46590;DHT22;32313;48.722;9.362;2022-12-22T06:23:29;9.30;99.90
46590;DHT22;32313;48.722;9.362;2022-12-22T06:26:00;9.50;99.90
46590;DHT22;32313;48.722;9.362;2022-12-22T06:28:26;9.40;99.90
46590;DHT22;32313;48.722;9.362;2022-12-22T06:30:53;9.30;99.90
46590;DHT22;32313;48.722;9.362;2022-12-22T06:33:19;9.40;99.90
46590;DHT22;32313;48.722;9.362;2022-12-22T06:35:45;9.40;99.90
46590;DHT22;32313;48.722;9.362;2022-12-22T06:38:11;9.40;99.90
46590;DHT22;32313;48.722;9.362;2022-12-22T06:40:37;9.40;99.90
46590;DHT22;32313;48.722;9.362;2022-12-22T06:43:02;9.50;99.90
46590;DHT22;32313;48.722;9.362;2022-12-22T06:45:35;9.40;99.90
46590;DHT22;32313;48.722;9.362;2022-12-22T06:48:01;9.20;99.90
46590;DHT22;32313;48.722;9.362;2022-12-22T06:50:27;9.20;99.90
46590;DHT22;32313;48.722;9.362;2022-12-22T06:52:53;9.10;99.90
46590;DHT22;32313;48.722;9.362;2022-12-22T06:55:19;8.90;99.90
46590;DHT22;32313;48.722;9.362;2022-12-22T06:57:44;8.90;99.90
46590;DHT22;32313;48.722;9.362;2022-12-22T07:00:10;8.90;99.90
46590;DHT22;32313;48.722;9.362;2022-12-22T07:02:36;9.10;99.90
46590;DHT22;32313;48.722;9.362;2022-12-22T07:05:02;9.20;99.90
46590;DHT22;32313;48.722;9.362;2022-12-22T07:07:28;9.30;99.90
46590;DHT22;32313;48.722;9.362;2022-12-22T07:09:53;9.30;99.90
46590;DHT22;32313;48.722;9.362;2022-12-22T07:12:22;9.30;99.90
46590;DHT22;32313;48.722;9.362;2022-12-22T07:14:48;9.50;99.90
46590;DHT22;32313;48.722;9.362;2022-12-22T07:17:14;9.50;99.90
46590;DHT22;32313;48.722;9.362;2022-12-22T07:19:40;9.50;99.90
46590;DHT22;32313;48.722;9.362;2022-12-22T07:22:05;9.40;99.90
46590;DHT22;32313;48.722;9.362;2022-12-22T07:24:31;9.20;99.90
46590;DHT22;32313;48.722;9.362;2022-12-22T07:26:57;9.10;99.90
46590;DHT22;32313;48.722;9.362;2022-12-22T07:29:23;9.10;99.90
46590;DHT22;32313;48.722;9.362;2022-12-22T07:31:49;8.90;99.90
46590;DHT22;32313;48.722;9.362;2022-12-22T07:34:14;8.80;99.90
46590;DHT22;32313;48.722;9.362;2022-12-22T07:36:40;8.90;99.90
46590;DHT22;32313;48.722;9.362;2022-12-22T07:39:07;9.00;99.90
46590;DHT22;32313;48.722;9.362;2022-12-22T07:41:33;9.10;99.90
46590;DHT22;32313;48.722;9.362;2022-12-22T07:44:17;9.30;99.90
46590;DHT22;32313;48.722;9.362;2022-12-22T07:46:43;9.40;99.90
46590;DHT22;32313;48.722;9.362;2022-12-22T07:49:09;9.30;99.90
46590;DHT22;32313;48.722;9.362;2022-12-22T07:51:58;9.30;99.90
46590;DHT22;32313;48.722;9.362;2022-12-22T07:54:25;9.40;99.90
46590;DHT22;32313;48.722;9.362;2022-12-22T07:56:51;9.60;99.90
46590;DHT22;32313;48.722;9.362;2022-12-22T07:59:17;9.60;99.90
46590;DHT22;32313;48.722;9.362;2022-12-22T08:01:43;9.60;99.90
46590;DHT22;32313;48.722;9.362;2022-12-22T08:04:10;9.50;99.90
46590;DHT22;32313;48.722;9.362;2022-12-22T08:06:37;9.40;99.90
46590;DHT22;32313;48.722;9.362;2022-12-22T08:09:04;9.20;99.90
46590;DHT22;32313;48.722;9.362;2022-12-22T08:11:30;9.10;99.90
46590;DHT22;32313;48.722;9.362;2022-12-22T08:13:55;8.90;99.90
46590;DHT22;32313;48.722;9.362;2022-12-22T08:16:21;8.70;99.90
46590;DHT22;32313;48.722;9.362;2022-12-22T08:18:47;8.50;99.90
46590;DHT22;32313;48.722;9.362;2022-12-22T08:21:14;8.50;99.90
46590;DHT22;32313;48.722;9.362;2022-12-22T08:23:40;8.50;99.90
46590;DHT22;32313;48.722;9.362;2022-12-22T08:26:13;8.50;99.90
46590;DHT22;32313;48.722;9.362;2022-12-22T08:28:46;8.60;99.90
46590;DHT22;32313;48.722;9.362;2022-12-22T08:31:13;8.60;99.90
46590;DHT22;32313;48.722;9.362;2022-12-22T08:33:39;8.60;99.90
46590;DHT22;32313;48.722;9.362;2022-12-22T08:36:05;8.70;99.90
46590;DHT22;32313;48.722;9.362;2022-12-22T08:38:32;8.70;99.90
46590;DHT22;32313;48.722;9.362;2022-12-22T08:40:58;8.70;99.90
46590;DHT22;32313;48.722;9.362;2022-12-22T08:43:24;8.70;99.90
46590;DHT22;32313;48.722;9.362;2022-12-22T08:45:50;8.70;99.90
46590;DHT22;32313;48.722;9.362;2022-12-22T08:48:16;8.80;99.90
46590;DHT22;32313;48.722;9.362;2022-12-22T08:50:41;9.20;99.90
46590;DHT22;32313;48.722;9.362;2022-12-22T08:53:08;9.90;99.90
46590;DHT22;32313;48.722;9.362;2022-12-22T08:55:34;10.10;99.90
46590;DHT22;32313;48.722;9.362;2022-12-22T08:58:00;10.20;99.90
46590;DHT22;32313;48.722;9.362;2022-12-22T09:00:25;10.20;99.90
46590;DHT22;32313;48.722;9.362;2022-12-22T09:02:51;10.30;99.90
46590;DHT22;32313;48.722;9.362;2022-12-22T09:05:18;10.40;99.90
46590;DHT22;32313;48.722;9.362;2022-12-22T09:07:44;10.50;99.90
46590;DHT22;32313;48.722;9.362;2022-12-22T09:10:17;10.50;99.90
46590;DHT22;32313;48.722;9.362;2022-12-22T09:12:48;10.70;99.90
46590;DHT22;32313;48.722;9.362;2022-12-22T09:15:15;10.90;99.90
46590;DHT22;32313;48.722;9.362;2022-12-22T09:17:42;11.10;99.90
46590;DHT22;32313;48.722;9.362;2022-12-22T09:20:08;11.40;99.90
46590;DHT22;32313;48.722;9.362;2022-12-22T09:22:34;12.20;99.90
46590;DHT22;32313;48.722;9.362;2022-12-22T09:25:00;12.50;99.90
46590;DHT22;32313;48.722;9.362;2022-12-22T09:27:25;12.10;99.90
46590;DHT22;32313;48.722;9.362;2022-12-22T09:29:51;11.90;99.90
46590;DHT22;32313;48.722;9.362;2022-12-22T09:32:17;11.50;99.90
46590;DHT22;32313;48.722;9.362;2022-12-22T09:34:42;11.00;99.90
46590;DHT22;32313;48.722;9.362;2022-12-22T09:37:08;10.60;99.90
46590;DHT22;32313;48.722;9.362;2022-12-22T09:39:34;10.30;99.90
46590;DHT22;32313;48.722;9.362;2022-12-22T09:42:00;10.00;99.90
46590;DHT22;32313;48.722;9.362;2022-12-22T09:44:27;9.80;99.90
46590;DHT22;32313;48.722;9.362;2022-12-22T09:46:59;9.60;99.90
46590;DHT22;32313;48.722;9.362;2022-12-22T09:49:26;9.60;99.90
46590;DHT22;32313;48.722;9.362;2022-12-22T09:51:58;9.50;99.90
46590;DHT22;32313;48.722;9.362;2022-12-22T09:54:24;9.40;99.90
46590;DHT22;32313;48.722;9.362;2022-12-22T09:56:51;9.40;99.90
46590;DHT22;32313;48.722;9.362;2022-12-22T09:59:19;9.30;99.90
46590;DHT22;32313;48.722;9.362;2022-12-22T10:01:55;9.20;99.90
46590;DHT22;32313;48.722;9.362;2022-12-22T10:07:12;9.20;99.90
46590;DHT22;32313;48.722;9.362;2022-12-22T10:09:41;9.20;99.90
46590;DHT22;32313;48.722;9.362;2022-12-22T10:12:16;9.20;99.90
46590;DHT22;32313;48.722;9.362;2022-12-22T10:14:45;9.30;99.90
46590;DHT22;32313;48.722;9.362;2022-12-22T10:19:51;9.30;99.90
46590;DHT22;32313;48.722;9.362;2022-12-22T10:24:52;9.40;99.90
46590;DHT22;32313;48.722;9.362;2022-12-22T10:27:20;9.40;99.90
46590;DHT22;32313;48.722;9.362;2022-12-22T10:29:46;9.40;99.90
46590;DHT22;32313;48.722;9.362;2022-12-22T10:32:14;9.50;99.90
46590;DHT22;32313;48.722;9.362;2022-12-22T10:35:02;9.50;99.90
46590;DHT22;32313;48.722;9.362;2022-12-22T10:37:34;9.50;99.90
46590;DHT22;32313;48.722;9.362;2022-12-22T10:40:21;9.50;99.90
46590;DHT22;32313;48.722;9.362;2022-12-22T10:42:51;9.60;99.90
46590;DHT22;32313;48.722;9.362;2022-12-22T10:45:25;9.60;99.90
46590;DHT22;32313;48.722;9.362;2022-12-22T10:47:53;9.60;99.90
46590;DHT22;32313;48.722;9.362;2022-12-22T10:50:21;9.60;99.90
46590;DHT22;32313;48.722;9.362;2022-12-22T10:52:52;9.60;99.90
46590;DHT22;32313;48.722;9.362;2022-12-22T10:55:27;9.60;99.90
46590;DHT22;32313;48.722;9.362;2022-12-22T10:58:26;9.60;99.90
46590;DHT22;32313;48.722;9.362;2022-12-22T11:01:01;9.70;99.90
46590;DHT22;32313;48.722;9.362;2022-12-22T11:03:29;9.80;99.90
46590;DHT22;32313;48.722;9.362;2022-12-22T11:05:55;9.70;99.90
46590;DHT22;32313;48.722;9.362;2022-12-22T11:08:23;9.70;99.90
46590;DHT22;32313;48.722;9.362;2022-12-22T11:11:06;9.60;99.90
46590;DHT22;32313;48.722;9.362;2022-12-22T11:13:57;9.60;99.90
46590;DHT22;32313;48.722;9.362;2022-12-22T11:16:42;9.60;99.90
46590;DHT22;32313;48.722;9.362;2022-12-22T11:19:45;9.60;99.90
46590;DHT22;32313;48.722;9.362;2022-12-22T11:22:27;9.70;99.90
46590;DHT22;32313;48.722;9.362;2022-12-22T11:31:25;9.70;99.90
46590;DHT22;32313;48.722;9.362;2022-12-22T11:33:43;9.80;99.90
46590;DHT22;32313;48.722;9.362;2022-12-22T11:36:35;10.00;99.90
46590;DHT22;32313;48.722;9.362;2022-12-22T11:39:14;10.00;99.90
46590;DHT22;32313;48.722;9.362;2022-12-22T11:44:44;10.10;99.90
46590;DHT22;32313;48.722;9.362;2022-12-22T11:55:18;10.20;99.90
46590;DHT22;32313;48.722;9.362;2022-12-22T12:00:23;10.20;99.90
46590;DHT22;32313;48.722;9.362;2022-12-22T12:06:37;10.40;99.90
46590;DHT22;32313;48.722;9.362;2022-12-22T12:23:30;11.00;99.90
46590;DHT22;32313;48.722;9.362;2022-12-22T12:26:19;11.10;99.90
46590;DHT22;32313;48.722;9.362;2022-12-22T12:28:56;11.20;99.90
46590;DHT22;32313;48.722;9.362;2022-12-22T12:31:33;11.50;99.90
46590;DHT22;32313;48.722;9.362;2022-12-22T12:34:03;11.60;99.90
46590;DHT22;32313;48.722;9.362;2022-12-22T12:42:38;11.80;99.90
46590;DHT22;32313;48.722;9.362;2022-12-22T12:44:56;11.70;99.90
46590;DHT22;32313;48.722;9.362;2022-12-22T12:47:28;11.60;99.90
46590;DHT22;32313;48.722;9.362;2022-12-22T12:50:29;11.50;99.90
46590;DHT22;32313;48.722;9.362;2022-12-22T12:53:07;11.40;99.90
46590;DHT22;32313;48.722;9.362;2022-12-22T12:56:00;11.30;99.90
46590;DHT22;32313;48.722;9.362;2022-12-22T12:58:47;11.30;99.90
46590;DHT22;32313;48.722;9.362;2022-12-22T13:03:52;11.20;99.90
46590;DHT22;32313;48.722;9.362;2022-12-22T13:06:48;11.20;99.90
46590;DHT22;32313;48.722;9.362;2022-12-22T13:09:23;11.30;99.90
46590;DHT22;32313;48.722;9.362;2022-12-22T13:11:49;11.30;99.90
46590;DHT22;32313;48.722;9.362;2022-12-22T13:14:54;11.30;99.90
46590;DHT22;32313;48.722;9.362;2022-12-22T13:17:47;11.30;99.90
46590;DHT22;32313;48.722;9.362;2022-12-22T13:20:16;11.30;99.90
46590;DHT22;32313;48.722;9.362;2022-12-22T13:22:43;11.20;99.90
46590;DHT22;32313;48.722;9.362;2022-12-22T13:25:14;11.30;99.90
46590;DHT22;32313;48.722;9.362;2022-12-22T13:27:41;11.30;99.90
46590;DHT22;32313;48.722;9.362;2022-12-22T13:30:16;11.30;99.90
46590;DHT22;32313;48.722;9.362;2022-12-22T13:32:44;11.30;99.90
46590;DHT22;32313;48.722;9.362;2022-12-22T13:35:38;11.20;99.90
46590;DHT22;32313;48.722;9.362;2022-12-22T13:38:05;11.20;99.90
46590;DHT22;32313;48.722;9.362;2022-12-22T13:40:41;11.10;99.90
46590;DHT22;32313;48.722;9.362;2022-12-22T13:43:14;11.00;99.90
46590;DHT22;32313;48.722;9.362;2022-12-22T13:45:53;11.00;99.90
46590;DHT22;32313;48.722;9.362;2022-12-22T13:48:30;10.90;99.90
46590;DHT22;32313;48.722;9.362;2022-12-22T13:51:04;10.90;99.90
46590;DHT22;32313;48.722;9.362;2022-12-22T13:53:43;10.90;99.90
46590;DHT22;32313;48.722;9.362;2022-12-22T13:56:25;11.00;99.90
46590;DHT22;32313;48.722;9.362;2022-12-22T13:58:57;11.10;99.90
46590;DHT22;32313;48.722;9.362;2022-12-22T14:01:24;11.20;99.90
46590;DHT22;32313;48.722;9.362;2022-12-22T14:04:02;11.30;99.90
46590;DHT22;32313;48.722;9.362;2022-12-22T14:09:20;11.50;99.90
46590;DHT22;32313;48.722;9.362;2022-12-22T14:12:05;11.60;99.90
46590;DHT22;32313;48.722;9.362;2022-12-22T14:14:37;11.80;99.90
46590;DHT22;32313;48.722;9.362;2022-12-22T14:17:03;12.00;99.90
46590;DHT22;32313;48.722;9.362;2022-12-22T14:19:38;12.00;99.90
46590;DHT22;32313;48.722;9.362;2022-12-22T14:22:08;11.90;99.90
46590;DHT22;32313;48.722;9.362;2022-12-22T14:24:40;12.00;99.90
46590;DHT22;32313;48.722;9.362;2022-12-22T14:27:22;12.30;99.90
46590;DHT22;32313;48.722;9.362;2022-12-22T14:29:48;12.60;99.90
46590;DHT22;32313;48.722;9.362;2022-12-22T14:32:35;12.90;99.90
46590;DHT22;32313;48.722;9.362;2022-12-22T14:35:01;13.00;99.90
46590;DHT22;32313;48.722;9.362;2022-12-22T14:37:27;12.80;99.90
46590;DHT22;32313;48.722;9.362;2022-12-22T14:39:56;12.50;99.90
46590;DHT22;32313;48.722;9.362;2022-12-22T14:42:22;12.20;99.90
46590;DHT22;32313;48.722;9.362;2022-12-22T14:44:48;12.00;99.90
46590;DHT22;32313;48.722;9.362;2022-12-22T14:47:17;11.80;99.90
46590;DHT22;32313;48.722;9.362;2022-12-22T14:50:00;11.60;99.90
46590;DHT22;32313;48.722;9.362;2022-12-22T14:55:04;11.30;99.90
46590;DHT22;32313;48.722;9.362;2022-12-22T14:57:37;11.10;99.90
46590;DHT22;32313;48.722;9.362;2022-12-22T15:00:07;11.10;99.90
46590;DHT22;32313;48.722;9.362;2022-12-22T15:02:36;11.00;99.90
46590;DHT22;32313;48.722;9.362;2022-12-22T15:05:14;11.00;99.90
46590;DHT22;32313;48.722;9.362;2022-12-22T15:07:58;10.90;99.90
46590;DHT22;32313;48.722;9.362;2022-12-22T15:10:26;10.80;99.90
46590;DHT22;32313;48.722;9.362;2022-12-22T15:12:58;10.70;99.90
46590;DHT22;32313;48.722;9.362;2022-12-22T15:15:28;10.60;99.90
46590;DHT22;32313;48.722;9.362;2022-12-22T15:17:56;10.50;99.90
46590;DHT22;32313;48.722;9.362;2022-12-22T15:20:24;10.40;99.90
46590;DHT22;32313;48.722;9.362;2022-12-22T15:22:51;10.40;99.90
46590;DHT22;32313;48.722;9.362;2022-12-22T15:25:22;10.20;99.90
46590;DHT22;32313;48.722;9.362;2022-12-22T15:27:48;10.10;99.90
46590;DHT22;32313;48.722;9.362;2022-12-22T15:30:17;10.10;99.90
46590;DHT22;32313;48.722;9.362;2022-12-22T15:32:43;10.20;99.90
46590;DHT22;32313;48.722;9.362;2022-12-22T15:35:32;10.20;99.90
46590;DHT22;32313;48.722;9.362;2022-12-22T15:37:59;10.20;99.90
46590;DHT22;32313;48.722;9.362;2022-12-22T15:40:27;10.10;99.90
46590;DHT22;32313;48.722;9.362;2022-12-22T15:42:53;10.00;99.90
46590;DHT22;32313;48.722;9.362;2022-12-22T15:45:20;9.90;99.90
46590;DHT22;32313;48.722;9.362;2022-12-22T15:47:49;9.90;99.90
46590;DHT22;32313;48.722;9.362;2022-12-22T15:50:28;9.90;99.90
46590;DHT22;32313;48.722;9.362;2022-12-22T15:52:56;9.90;99.90
46590;DHT22;32313;48.722;9.362;2022-12-22T15:55:24;9.90;99.90
46590;DHT22;32313;48.722;9.362;2022-12-22T15:57:52;9.80;99.90
46590;DHT22;32313;48.722;9.362;2022-12-22T16:00:18;9.80;99.90
46590;DHT22;32313;48.722;9.362;2022-12-22T16:02:44;9.80;99.90
46590;DHT22;32313;48.722;9.362;2022-12-22T16:05:11;9.80;99.90
46590;DHT22;32313;48.722;9.362;2022-12-22T16:07:41;9.80;99.90
46590;DHT22;32313;48.722;9.362;2022-12-22T16:10:19;9.80;99.90
46590;DHT22;32313;48.722;9.362;2022-12-22T16:12:46;9.80;99.90
46590;DHT22;32313;48.722;9.362;2022-12-22T16:15:19;9.70;99.90
46590;DHT22;32313;48.722;9.362;2022-12-22T16:17:45;9.60;99.90
46590;DHT22;32313;48.722;9.362;2022-12-22T16:20:11;9.60;99.90
46590;DHT22;32313;48.722;9.362;2022-12-22T16:22:37;9.70;99.90
46590;DHT22;32313;48.722;9.362;2022-12-22T16:25:06;9.70;99.90
46590;DHT22;32313;48.722;9.362;2022-12-22T16:27:36;9.70;99.90
46590;DHT22;32313;48.722;9.362;2022-12-22T16:30:02;9.70;99.90
46590;DHT22;32313;48.722;9.362;2022-12-22T16:32:29;9.60;99.90
46590;DHT22;32313;48.722;9.362;2022-12-22T16:35:23;9.60;99.90
46590;DHT22;32313;48.722;9.362;2022-12-22T16:37:50;9.50;99.90
46590;DHT22;32313;48.722;9.362;2022-12-22T16:40:17;9.40;99.90
46590;DHT22;32313;48.722;9.362;2022-12-22T16:43:04;9.40;99.90
46590;DHT22;32313;48.722;9.362;2022-12-22T16:45:35;9.20;99.90
46590;DHT22;32313;48.722;9.362;2022-12-22T16:48:05;9.20;99.90
46590;DHT22;32313;48.722;9.362;2022-12-22T16:50:31;9.30;99.90
46590;DHT22;32313;48.722;9.362;2022-12-22T16:53:03;9.30;99.90
46590;DHT22;32313;48.722;9.362;2022-12-22T16:55:30;9.20;99.90
46590;DHT22;32313;48.722;9.362;2022-12-22T16:57:56;9.20;99.90
46590;DHT22;32313;48.722;9.362;2022-12-22T17:00:27;9.10;99.90
46590;DHT22;32313;48.722;9.362;2022-12-22T17:05:40;9.00;99.90
46590;DHT22;32313;48.722;9.362;2022-12-22T17:08:11;9.10;99.90
46590;DHT22;32313;48.722;9.362;2022-12-22T17:10:38;9.10;99.90
46590;DHT22;32313;48.722;9.362;2022-12-22T17:13:04;9.10;99.90
46590;DHT22;32313;48.722;9.362;2022-12-22T17:15:29;9.20;99.90
46590;DHT22;32313;48.722;9.362;2022-12-22T17:17:55;9.30;99.90
46590;DHT22;32313;48.722;9.362;2022-12-22T17:20:22;9.30;99.90
46590;DHT22;32313;48.722;9.362;2022-12-22T17:23:01;9.30;99.90
46590;DHT22;32313;48.722;9.362;2022-12-22T17:25:29;9.40;99.90
46590;DHT22;32313;48.722;9.362;2022-12-22T17:27:56;9.40;99.90
46590;DHT22;32313;48.722;9.362;2022-12-22T17:30:26;9.40;99.90
46590;DHT22;32313;48.722;9.362;2022-12-22T17:32:52;9.50;99.90
46590;DHT22;32313;48.722;9.362;2022-12-22T17:35:20;9.50;99.90